Terminal Aerodrome Forecast
Issued by NWS

Current Version | Previous Version | Text Only | Print | Product List | Glossary On
Versions: 1 2 3 4 5 6 7 8 9 10 11 12 13 14 15 16 17 18 19 20 21 22 23 24 25 26 27 28 29 30 31 32 33 34 35 36 37 38 39 40 41 42 43 44 45 46 47 48 49 50
000
FTUS43 KDMX 061728
TAFMCW
TAF
KMCW 061728Z 0618/0718 14018G25KT P6SM SCT060 BKN090
     FM062300 15014G21KT 6SM -SHRA SCT040 BKN080 OVC120
     FM070200 16014KT P6SM SCT015 SCT050
     FM071300 16017KT P6SM VCSH SCT015 BKN050 OVC120=

USA.gov is the U.S. government's official web portal to all federal, state and local government web resources and services.